Date,TemperatureHighF,TemperatureAvgF,TemperatureLowF,DewpointHighF,DewpointAvgF,DewpointLowF,HumidityHigh,HumidityAvg,HumidityLow,PressureMaxIn,PressureMinIn,WindSpeedMaxMPH,WindSpeedAvgMPH,GustSpeedMaxMPH,PrecipitationSumIn
2013-1-1,34.2,34.2,34.2,-0.8,-0.8,-0.8,22,22,22,30.06,29.88,1,1,1,0.00
2013-1-3,61.9,50.4,39.2,17.9,10.5,4.4,38,20,16,30.44,30.33,0,0,0,0.00
2013-1-4,51.3,46.3,41.5,10.3,6.7,4.4,21,19,19,30.56,30.36,0,0,0,0.00
2013-1-5,49.1,45.2,43.2,24.1,17.1,5.5,43,33,20,30.42,30.27,0,0,0,0.00
2013-1-6,65.5,50.4,36.9,34.8,18.8,4.4,65,33,15,30.36,30.24,0,0,0,0.00
2013-1-7,66.0,48.1,35.8,21.0,13.5,7.0,40,26,15,30.39,30.15,0,0,0,0.00
2013-1-8,63.9,58.1,51.6,48.5,29.7,12.9,58,35,21,30.18,30.00,0,0,0,0.00
2013-1-9,68.4,64.5,61.7,63.5,53.0,36.6,86,69,37,30.18,29.97,0,0,0,0.00
2013-1-10,65.7,65.4,65.3,60.7,60.4,60.3,84,84,84,30.09,30.06,0,0,0,0.00
2013-1-12,77.2,72.9,63.9,58.9,40.1,33.2,84,31,21,30.09,29.74,0,0,0,0.00
2013-1-13,72.7,53.5,45.7,41.1,25.4,18.1,38,34,30,30.15,29.74,0,0,0,0.00
2013-1-14,46.8,42.3,38.7,21.7,15.0,10.5,39,33,28,30.27,30.09,14,4,14,0.00
2013-1-15,41.2,37.9,35.8,16.4,14.6,11.1,41,38,29,30.18,30.00,10,5,10,0.00
2013-1-16,54.9,38.6,31.8,15.1,10.9,1.1,41,33,18,30.27,30.12,6,5,6,0.00
2013-1-17,66.2,44.6,29.3,17.0,9.5,0.9,40,25,15,30.50,30.27,5,5,6,0.00
2013-1-18,68.4,45.1,30.2,20.5,8.7,-2.7,39,24,15,30.59,30.42,5,5,6,0.00
2013-1-19,71.4,48.3,30.4,23.0,12.4,-0.5,38,25,14,30.42,30.21,5,3,6,0.00
2013-1-20,77.0,53.6,35.2,30.1,17.3,11.7,39,26,13,30.30,30.12,0,0,1,0.00
2013-1-21,77.9,54.3,38.8,31.7,18.5,10.2,39,27,13,30.27,30.12,5,0,5,0.00
2013-1-22,74.3,53.3,39.6,21.3,16.0,9.1,37,24,13,30.42,30.24,8,1,8,0.00
2013-1-23,75.6,57.4,39.9,33.2,21.4,15.6,39,27,13,30.42,30.27,9,2,9,0.00
2013-1-24,74.5,62.4,50.0,48.0,29.9,23.0,78,31,16,30.39,30.21,0,0,0,0.00
2013-1-25,79.7,65.8,55.0,55.5,30.3,19.0,78,30,12,30.27,30.09,6,2,6,0.00
2013-1-26,79.9,63.9,54.0,47.7,28.2,18.4,45,29,12,30.27,30.12,7,0,7,0.00
2013-1-27,78.3,67.1,55.8,38.1,30.3,23.0,44,27,15,30.24,30.09,12,2,12,0.00
2013-1-28,76.8,70.6,66.4,40.0,35.3,31.5,34,28,20,30.21,30.00,8,3,8,0.00
2013-1-29,79.2,72.1,69.1,42.3,39.7,33.4,35,31,20,30.06,29.65,9,6,9,0.00
2013-1-30,72.3,54.4,36.1,41.4,15.8,-0.8,48,23,16,30.27,29.68,29,13,29,0.00
2013-1-31,68.2,49.2,31.1,23.2,11.0,2.3,37,22,15,30.36,30.24,12,12,12,0.00
2013-2-1,77.4,55.4,42.8,22.6,14.4,5.9,37,21,13,30.44,30.30,12,12,12,0.00
2013-2-2,78.4,57.9,41.5,30.8,20.5,15.6,40,26,13,30.33,30.18,12,12,12,0.00
2013-2-3,78.3,58.7,45.3,34.2,20.2,7.5,45,25,13,30.36,30.06,12,12,12,0.00
2013-2-4,67.1,58.3,44.4,39.9,24.5,12.6,44,28,20,30.09,29.88,12,12,12,0.00
2013-2-5,81.3,68.1,58.3,40.4,29.9,19.7,46,26,13,30.00,29.91,12,12,12,0.00
2013-2-6,66.6,61.5,57.2,52.7,39.8,30.5,80,47,28,30.09,29.88,12,12,12,0.00
2013-2-7,78.3,63.9,57.9,38.3,31.1,19.8,44,31,13,30.03,29.88,12,12,12,0.00
2013-2-8,74.8,61.0,50.2,55.1,29.7,15.4,81,35,13,30.18,29.97,12,12,12,0.00
2013-2-9,67.8,58.6,48.2,36.5,27.7,23.1,37,31,22,30.21,29.94,13,5,13,0.00
2013-2-10,77.4,67.9,62.8,45.5,38.3,29.4,42,34,22,29.97,29.83,20,5,20,0.00
2013-2-11,63.5,56.1,52.3,37.4,31.2,25.3,43,39,27,30.18,29.94,15,5,15,0.00
2013-2-12,68.0,58.8,54.1,60.9,38.9,24.8,87,51,29,30.03,29.74,7,4,7,0.00
2013-2-13,67.1,53.3,39.4,28.2,15.7,7.0,36,23,15,30.15,29.94,3,2,3,0.00
2013-2-14,72.0,53.8,36.7,19.9,13.7,6.3,35,21,14,30.21,30.06,3,0,3,0.00
2013-2-15,75.4,54.4,36.1,30.0,15.3,8.2,39,23,13,30.30,30.12,0,0,0,0.00
2013-2-16,61.7,47.5,34.0,15.5,6.7,-2.7,25,19,16,30.44,30.27,0,0,0,0.00
2013-2-17,71.8,54.0,34.3,21.0,14.1,2.1,35,22,14,30.30,30.12,0,0,0,0.00
2013-2-18,71.2,64.2,57.9,42.8,28.3,19.2,44,27,17,30.12,29.83,0,0,0,0.00
2013-2-19,71.6,58.4,46.6,31.6,17.4,8.8,36,21,14,30.30,30.03,0,0,0,0.00
2013-2-20,61.3,54.6,48.7,15.4,11.5,8.2,19,18,16,30.27,29.94,18,2,18,0.00
2013-2-21,72.7,64.4,55.9,45.2,33.4,11.7,40,32,17,29.94,29.68,20,7,20,0.00
2013-2-22,67.1,61.1,56.7,36.5,23.1,15.3,39,24,15,30.00,29.83,12,3,12,0.00
2013-2-23,77.7,58.6,49.3,26.0,18.7,12.0,36,22,13,30.03,29.88,8,1,8,0.00
2013-2-24,73.0,58.2,40.1,33.5,20.1,14.7,39,24,14,29.97,29.68,12,4,12,0.00
2013-2-25,77.4,65.3,49.1,61.6,32.0,8.5,78,32,13,29.68,29.38,28,7,28,0.00
2013-2-26,68.2,53.1,43.7,18.7,10.7,5.0,25,18,15,29.94,29.62,28,9,28,0.00
2013-2-27,76.5,56.1,40.8,27.1,15.2,1.7,37,21,13,30.12,29.91,5,1,5,0.00
2013-2-28,60.4,45.8,36.9,15.1,6.6,-0.9,26,20,17,30.27,30.09,5,2,5,0.00
2013-3-1,66.9,48.6,35.1,17.6,9.2,-0.8,30,21,15,30.27,30.12,8,4,8,0.00
2013-3-2,57.4,43.1,30.7,12.9,5.5,-3.7,30,21,17,30.33,30.18,21,5,21,0.00
2013-3-3,69.8,48.2,27.7,19.9,9.7,-2.8,33,22,15,30.33,30.09,11,2,11,0.00
2013-3-4,76.1,64.4,51.8,32.9,23.8,18.0,31,22,13,30.09,29.83,28,7,28,0.00
2013-3-5,77.9,64.7,46.6,38.3,23.5,6.4,36,22,13,30.33,29.88,20,5,20,0.00
2013-3-6,74.7,51.6,32.2,21.1,8.4,-4.5,23,18,13,30.44,30.24,14,3,14,0.00
2013-3-7,72.3,52.5,36.3,20.1,11.7,2.9,30,20,14,30.39,30.24,0,0,0,0.00
2013-3-8,76.1,57.7,38.8,27.5,16.7,10.3,38,21,13,30.33,30.12,13,4,13,0.00
2013-3-9,75.4,64.1,54.3,36.2,29.2,11.2,36,28,16,30.15,29.85,16,6,16,0.00
2013-3-10,66.9,60.6,55.0,36.9,29.7,11.2,36,31,17,30.03,29.83,15,3,15,0.00
2013-3-11,66.4,52.8,37.9,17.1,10.2,0.1,21,18,15,30.15,29.97,15,6,15,0.00
2013-3-12,78.3,54.4,33.3,23.3,13.7,3.5,35,21,13,30.30,30.12,13,2,13,0.00
2013-3-13,79.9,56.4,38.1,23.5,14.9,5.6,35,21,12,30.50,30.30,15,3,15,0.00
2013-3-14,44.2,41.3,39.7,8.7,6.3,4.4,26,23,20,30.42,30.42,0,0,0,0.00
2013-3-15,80.1,68.1,42.6,33.1,23.5,11.7,36,20,12,30.36,30.09,14,3,14,0.00
2013-3-16,81.7,67.6,57.9,40.3,27.3,17.6,41,25,12,30.09,29.91,16,3,16,0.00
2013-3-17,79.2,69.3,62.2,43.1,34.3,24.9,40,28,15,29.94,29.77,7,4,7,0.00
2013-3-18,88.5,74.2,66.6,51.2,36.7,22.3,54,29,11,29.94,29.71,6,2,6,0.00
2013-3-19,68.7,67.8,65.1,38.4,30.0,20.0,34,25,17,29.97,29.88,11,5,11,0.00
2013-3-20,79.3,64.0,47.8,26.6,18.6,7.5,34,18,12,30.27,30.06,14,6,14,0.00
2013-3-21,74.3,63.3,47.3,25.7,16.6,7.8,24,17,13,30.12,29.77,16,6,16,0.00
2013-3-22,84.6,71.4,61.0,41.6,34.3,24.2,36,27,13,29.83,29.68,13,4,13,0.00
2013-3-23,79.2,71.0,68.5,50.4,41.6,33.0,51,35,20,29.80,29.53,6,2,6,0.00
2013-3-24,68.5,60.6,42.3,39.6,20.9,1.5,36,23,15,30.15,29.62,20,6,20,0.00
2013-3-25,68.0,49.0,34.7,18.6,8.2,-0.7,29,19,15,30.39,30.15,15,4,15,0.00
2013-3-26,67.1,48.1,29.7,17.6,6.2,-6.6,23,18,15,30.53,30.33,10,0,10,0.00
2013-3-27,73.4,51.5,32.2,21.0,10.8,-1.1,32,20,14,30.48,30.24,4,2,4,0.00
2013-3-28,78.3,58.6,41.0,30.1,18.7,7.0,35,22,13,30.42,30.24,4,4,4,0.00
2013-3-29,81.0,65.4,52.9,38.8,26.7,17.8,45,26,12,30.33,30.15,4,4,4,0.00
2013-3-30,80.6,67.4,57.9,43.9,29.7,19.5,43,26,12,30.21,30.00,4,4,4,0.00
2013-3-31,83.5,66.1,58.3,63.0,37.4,18.7,83,38,13,30.03,29.88,4,4,4,0.00
2013-4-1,85.6,64.4,57.9,46.5,33.4,11.8,62,37,11,30.15,29.94,4,4,4,0.00
2013-4-2,80.8,66.5,55.9,36.4,28.0,19.5,40,26,12,30.12,29.88,18,5,18,0.00
2013-4-3,67.3,56.5,48.9,40.9,27.4,20.0,48,33,24,30.12,29.83,7,4,7,0.00
2013-4-4,54.9,50.0,47.5,25.8,20.6,15.1,42,32,23,30.21,30.06,10,4,10,0.00
2013-4-5,81.9,60.8,43.7,26.3,19.7,14.0,42,22,12,30.30,30.09,13,3,13,0.00
2013-4-6,76.6,61.9,48.9,37.8,24.0,17.3,42,26,13,30.21,30.00,15,3,15,0.00
2013-4-7,81.9,69.5,60.1,37.2,29.6,19.5,39,25,12,30.09,29.91,19,4,19,0.00
2013-4-8,83.7,73.4,67.6,39.5,32.6,21.9,35,24,12,29.94,29.83,17,6,17,0.00
2013-4-9,81.9,74.0,67.5,46.2,39.1,34.5,45,29,20,29.91,29.80,24,7,24,0.00
2013-4-10,75.2,74.4,73.6,42.3,41.7,41.1,31,31,30,29.85,29.80,10,6,10,0.00
2013-4-11,70.2,55.0,49.8,20.4,17.2,11.0,31,23,14,29.88,29.80,10,2,6,0.00
2013-4-12,85.5,63.6,44.6,34.6,21.7,12.6,41,22,11,30.09,29.88,12,2,12,0.00
2013-4-13,82.4,66.4,49.1,35.0,22.7,17.7,38,21,12,30.06,29.80,16,4,16,0.00
2013-4-14,88.3,70.2,60.4,38.6,29.7,19.1,41,24,10,29.85,29.71,18,2,18,0.00
2013-4-15,90.5,75.4,62.8,46.7,37.1,27.5,50,28,12,29.91,29.77,12,2,12,0.00
2013-4-16,85.8,77.4,73.9,48.1,42.1,35.8,39,29,19,30.03,29.85,13,4,13,0.00
2013-4-17,85.6,77.8,74.1,44.0,40.8,35.8,33,27,18,30.03,29.83,15,5,15,0.00
2013-4-18,83.5,71.3,53.1,44.7,36.9,19.8,37,29,20,30.03,29.68,7,4,7,0.00
2013-4-19,72.1,55.7,43.5,20.3,13.6,6.3,28,19,14,30.27,30.03,4,4,6,0.00
2013-4-20,76.8,56.4,36.9,24.5,16.3,9.7,38,22,13,30.33,30.12,6,4,6,0.00
2013-4-21,80.8,61.6,43.7,27.1,19.8,12.6,39,22,12,30.27,30.06,6,4,6,0.00
2013-4-22,85.1,65.7,47.1,33.5,23.5,18.5,37,23,11,30.18,29.94,6,4,6,0.00
2013-4-23,86.5,71.6,56.7,47.0,34.4,26.5,45,27,13,30.06,29.91,6,4,6,0.00
2013-4-24,73.6,67.0,56.5,43.2,24.5,15.1,34,21,14,30.24,29.94,4,1,6,0.00
2013-4-25,78.3,64.3,51.6,23.3,19.2,14.4,27,18,13,30.42,30.21,0,0,0,0.00
2013-4-26,82.6,70.5,59.9,42.6,26.5,15.7,36,20,14,30.27,30.12,0,0,0,0.00
2013-4-27,85.5,73.8,68.4,55.9,39.2,26.5,58,30,13,30.18,29.97,0,0,0,0.00
2013-4-28,86.9,71.9,62.6,51.4,35.8,22.8,56,29,13,30.09,29.88,0,0,0,0.00
2013-4-29,85.3,70.2,58.6,60.4,35.4,21.9,85,32,11,30.00,29.85,24,3,24,0.00
2013-4-30,85.8,72.1,65.1,53.1,38.7,24.5,56,32,13,29.91,29.77,15,2,15,0.00
2013-5-1,89.1,73.5,66.0,60.3,38.6,22.6,75,32,11,29.94,29.83,8,1,8,0.00
2013-5-2,81.9,68.4,55.6,47.2,34.1,24.3,47,30,14,30.09,29.88,10,2,11,0.00
2013-5-3,70.7,55.7,44.1,24.4,16.3,6.4,30,22,14,30.18,30.06,16,9,16,0.00
2013-5-4,79.0,61.4,39.9,30.6,19.5,12.2,37,22,12,30.12,29.83,10,3,10,0.00
2013-5-5,74.8,60.0,44.8,27.7,18.2,9.9,33,21,13,30.09,29.94,3,3,6,0.00
2013-5-6,86.5,64.3,44.6,30.4,21.2,14.7,38,21,11,30.15,29.94,6,3,6,0.00
2013-5-7,89.6,69.7,55.6,39.0,27.0,18.4,36,23,10,30.12,29.97,6,2,6,0.00
2013-5-8,86.9,71.7,56.5,41.4,30.1,19.5,38,23,11,30.15,30.00,3,2,6,0.00
2013-5-9,80.1,73.1,67.6,45.6,40.3,34.1,38,31,21,30.09,29.85,6,2,6,0.00
2013-5-10,83.7,70.7,65.1,64.4,40.1,24.3,90,38,14,30.09,29.85,6,2,6,0.00
2013-5-11,90.0,74.6,65.8,66.8,39.7,22.4,87,35,12,30.09,29.94,6,2,6,0.00
2013-5-12,90.3,72.5,59.9,43.7,29.3,15.7,43,23,11,30.21,30.06,6,2,6,0.00
2013-5-13,87.1,68.4,51.1,35.0,24.4,17.0,38,21,11,30.36,30.18,6,2,6,0.00
2013-5-14,89.2,72.3,55.6,40.9,28.4,18.4,37,22,11,30.30,30.12,6,3,6,0.00
2013-5-15,84.6,72.3,63.1,45.0,33.2,25.2,39,25,13,30.18,29.94,9,3,9,0.00
2013-5-16,71.4,70.9,70.2,40.5,39.6,38.9,33,32,32,29.97,29.94,0,0,2,0.00
2013-5-17,90.0,87.0,82.0,36.9,32.3,28.1,19,14,12,29.97,29.91,2,2,6,0.00
2013-5-18,90.1,87.2,76.5,43.6,32.7,30.4,31,15,12,30.00,29.97,5,2,5,0.00
2013-5-21,90.1,90.1,90.1,30.7,30.7,30.7,12,12,12,29.97,29.97,2,2,5,0.00
2013-5-24,90.1,90.1,90.1,30.7,30.7,30.7,12,12,12,29.97,29.97,2,2,5,0.00
2013-5-25,90.1,90.1,90.1,30.7,30.7,30.7,12,12,12,30.00,30.00,5,5,0,0.00
2013-5-26,95.2,81.0,70.0,57.2,35.9,28.0,43,22,11,30.18,30.00,5,5,0,0.00
2013-5-27,91.8,80.7,70.5,43.7,35.4,28.0,38,22,12,30.12,29.94,5,5,5,0.00
2013-5-28,91.9,82.1,73.8,44.9,36.1,29.1,34,21,12,30.03,29.88,5,5,0,0.00
2013-5-29,91.6,81.8,73.6,47.9,37.4,28.8,39,22,12,29.97,29.83,5,5,0,0.00
2013-5-30,93.2,83.2,76.8,48.7,40.2,29.6,37,23,11,29.94,29.83,5,5,0,0.00
2013-5-31,92.8,83.1,78.6,52.4,43.6,34.7,38,26,14,29.97,29.83,5,5,0,0.00
2013-6-1,94.8,84.8,78.8,53.2,42.3,30.4,40,25,11,29.91,29.83,5,5,0,0.00
2013-6-2,79.3,77.3,71.1,64.2,46.6,41.5,76,36,26,30.03,29.91,5,5,5,0.00
2013-6-3,79.3,79.3,79.3,41.5,41.5,41.5,26,26,26,29.97,29.97,5,5,5,0.00
2013-6-4,79.3,79.3,79.3,41.5,41.5,41.5,26,26,26,29.97,29.97,5,5,0,0.00
2013-6-5,79.3,79.3,79.3,41.5,41.5,41.5,26,26,26,29.97,29.97,5,5,5,0.00
2013-6-6,79.3,79.3,79.3,41.5,41.5,41.5,26,26,26,29.97,29.97,5,5,5,0.00
2013-6-12,79.2,75.0,73.9,46.8,46.0,45.3,37,36,31,30.03,29.85,3,1,3,0.00
2013-6-13,100.0,86.4,78.8,58.6,40.5,29.0,42,22,10,30.09,29.88,0,0,0,0.00
2013-6-14,103.5,88.3,74.7,72.9,39.4,31.4,77,21,9,29.97,29.83,0,0,0,0.00
2013-6-15,101.8,85.6,75.0,49.1,41.2,30.9,40,25,10,30.03,29.88,4,0,4,0.00
2013-6-16,99.1,86.2,76.6,59.0,41.0,28.4,50,24,10,30.09,29.95,1,1,1,0.00
2013-6-17,97.5,85.1,74.8,59.0,40.6,28.4,52,24,11,30.03,29.89,1,1,1,0.00
2013-6-18,96.6,82.9,73.9,71.6,44.9,26.6,88,32,11,30.03,29.86,1,1,1,0.00
2013-6-19,75.9,75.2,74.3,73.4,71.9,69.8,90,89,84,29.98,29.98,1,1,1,0.00
2013-6-24,97.5,84.4,75.7,69.8,42.8,30.2,77,28,11,30.12,30.01,4,4,4,0.00
2013-6-25,98.1,85.3,74.5,66.2,41.3,30.2,73,25,11,30.09,29.95,4,4,4,0.00
2013-6-26,80.4,79.5,78.3,55.4,50.7,48.2,42,36,34,29.98,29.95,4,4,4,0.00
2013-7-1,95.9,81.3,65.1,42.8,34.1,24.8,36,21,11,29.95,29.83,8,2,8,0.00
2013-7-2,99.0,82.0,66.9,46.4,35.6,23.0,46,22,10,30.07,29.89,12,2,12,0.00
2013-7-3,98.8,80.8,66.6,42.8,33.3,21.2,37,20,10,30.07,29.89,10,4,10,0.00
2013-7-4,99.3,82.0,67.3,44.6,35.8,26.6,43,22,10,30.03,29.89,3,0,3,0.00
2013-7-5,100.6,82.3,0.0,48.2,37.7,28.4,45,22,10,30.03,29.92,13,3,13,0.00
2013-7-6,94.3,83.7,75.2,48.2,40.2,30.2,39,24,11,30.01,29.86,6,4,6,0.00
2013-7-7,90.5,80.6,77.5,59.0,49.7,39.2,51,35,17,30.07,29.89,5,5,5,0.00
2013-7-8,101.5,86.6,75.9,75.2,43.8,30.2,89,26,10,30.21,30.03,6,6,6,0.00
2013-7-9,99.9,87.6,75.4,57.2,42.1,30.2,49,24,10,30.15,29.95,6,6,6,0.00
2013-7-10,92.8,85.3,78.1,48.2,37.1,30.2,34,20,12,29.98,29.95,6,6,6,0.00
2013-7-11,84.4,76.6,0.0,57.2,44.3,35.6,46,29,19,30.03,29.89,6,3,6,0.00
2013-7-12,105.6,86.6,75.2,57.2,38.3,28.4,49,20,9,29.98,29.83,0,0,0,0.00
2013-7-13,103.1,86.5,73.9,55.4,37.0,23.0,50,21,9,30.01,29.83,0,0,0,0.00
2013-7-14,79.9,79.9,79.9,23.0,23.0,23.0,12,12,12,30.01,29.89,0,0,0,0.00
2013-7-15,79.9,79.9,79.9,23.0,23.0,23.0,12,12,12,30.09,29.92,0,0,0,0.00
2013-7-16,79.9,79.9,79.9,23.0,23.0,23.0,12,12,12,30.15,30.03,0,0,0,0.00
2013-7-17,79.9,79.9,79.9,23.0,23.0,23.0,12,12,12,30.21,30.07,0,0,0,0.00
2013-7-18,79.9,79.9,79.9,23.0,23.0,23.0,12,12,12,30.18,29.95,0,0,0,0.00
2013-7-19,79.9,79.9,79.9,23.0,23.0,23.0,12,12,12,30.09,29.95,0,0,0,0.00
2013-7-20,79.9,79.9,79.9,23.0,23.0,23.0,12,12,12,30.03,29.86,0,0,0,0.00
2013-7-21,90.9,80.9,77.7,53.6,30.7,23.0,41,17,12,30.03,29.95,0,0,0,0.00
2013-7-22,96.3,87.4,78.3,77.0,47.6,32.0,85,32,11,30.07,29.95,0,0,0,0.00
2013-7-23,95.2,85.2,79.0,77.0,50.7,30.2,88,38,11,30.09,29.89,0,0,0,0.00
2013-7-24,96.4,85.6,78.6,53.6,43.7,30.2,42,27,11,30.03,29.86,0,0,0,0.00
2013-7-25,103.5,87.7,78.8,75.2,46.1,30.2,85,28,9,30.07,29.95,6,0,6,0.00
2013-7-26,100.6,87.2,76.3,73.4,43.0,30.2,83,25,10,30.09,29.89,10,2,10,0.00
2013-7-27,99.0,84.8,75.9,53.6,43.6,30.2,38,26,11,29.98,29.83,20,3,20,0.00
2013-7-28,94.8,82.3,75.9,55.4,46.5,35.6,43,30,14,30.03,29.92,0,0,0,0.00
2013-7-29,100.9,86.4,74.5,75.2,46.3,28.4,88,33,10,30.09,30.01,0,0,0,0.00
2013-7-30,100.2,85.4,72.0,73.4,44.2,28.4,88,30,10,30.18,30.03,0,0,0,0.00
2013-7-31,101.8,86.2,74.3,69.8,42.4,30.2,83,26,10,30.12,29.95,0,0,0,0.00
2013-8-1,105.1,89.0,77.2,73.4,42.2,30.2,84,24,9,30.03,29.86,0,0,0,0.00
2013-8-2,104.4,88.8,77.0,73.4,42.4,30.2,81,25,9,30.01,29.89,0,0,0,0.00
2013-8-3,104.5,87.2,0.0,60.8,40.1,30.2,57,21,9,30.12,29.95,0,0,0,0.00
2013-8-4,103.8,85.2,79.2,57.2,45.8,32.0,41,27,9,30.15,29.98,0,0,0,0.00
2013-8-5,101.1,88.2,77.5,77.0,45.6,30.2,88,28,10,30.09,29.92,12,2,13,0.00
2013-8-6,100.6,87.6,77.2,69.8,46.0,30.2,78,29,10,30.01,29.86,13,2,13,0.00
2013-8-7,102.9,88.1,78.1,78.8,48.1,30.2,88,33,9,29.98,29.83,11,2,14,0.00
2013-8-8,102.0,87.2,75.4,75.2,47.8,28.4,91,35,10,29.98,29.83,10,1,10,0.00
2013-8-9,105.3,87.0,75.0,73.4,48.2,30.2,83,33,9,29.98,29.83,16,1,16,0.00
2013-8-10,100.0,81.8,77.0,77.0,57.4,30.2,90,49,10,30.09,29.95,17,1,17,0.00
2013-8-11,98.6,79.0,0.0,78.8,57.7,30.2,92,51,10,30.12,30.01,14,1,14,0.00
2013-8-12,96.1,85.1,77.2,77.0,51.6,30.2,90,40,11,30.12,29.98,11,1,11,0.00
2013-8-13,101.1,87.8,78.6,77.0,47.4,30.2,87,32,10,30.07,29.89,15,3,15,0.00
2013-8-14,81.1,64.4,0.0,68.0,52.4,48.2,74,35,31,29.98,29.95,8,1,8,0.00
2013-8-15,85.1,79.6,72.5,69.8,49.0,37.4,78,41,19,30.03,29.89,6,1,6,0.00
2013-8-16,82.6,82.6,82.6,37.4,37.4,37.4,19,19,19,30.03,29.89,7,1,7,0.00
2013-8-17,99.5,84.9,73.4,37.4,34.3,21.2,24,16,10,30.07,29.89,9,1,9,0.00
2013-8-18,94.8,81.9,70.2,55.4,38.5,23.0,50,25,11,30.03,29.95,7,2,7,0.00
2013-8-19,100.2,83.6,69.6,62.6,39.7,24.8,77,26,10,30.07,29.89,10,2,10,0.00
2013-8-20,85.1,76.6,71.6,73.4,54.1,42.8,91,47,22,30.07,29.95,8,1,8,0.00
2013-8-21,101.5,84.2,73.2,75.2,49.4,28.4,92,42,10,30.09,29.95,15,2,15,0.00
2013-8-22,99.7,85.9,73.9,73.4,43.0,28.4,87,27,10,30.12,29.92,10,2,10,0.00
2013-8-23,103.5,86.3,74.5,73.4,45.1,28.4,87,32,9,30.03,29.86,13,1,13,0.00
2013-8-24,97.0,84.3,74.7,50.0,39.6,30.2,41,23,11,30.07,29.95,10,5,10,0.00
2013-8-25,89.1,79.5,75.9,57.2,47.4,35.6,48,33,15,30.15,30.01,15,7,15,0.00
2013-8-26,83.8,77.6,74.5,73.4,57.5,42.8,88,52,25,30.18,30.09,15,4,15,0.00
2013-8-27,100.8,82.8,72.3,75.2,50.0,24.8,96,46,10,30.15,30.01,0,0,0,0.00
2013-8-28,103.1,85.6,72.7,75.2,44.9,28.4,89,32,9,30.12,29.95,0,0,0,0.00
2013-8-29,102.0,85.5,75.6,77.0,45.0,28.4,90,31,10,30.09,29.95,7,0,7,0.00
2013-8-30,99.5,84.1,73.6,77.0,45.5,28.4,92,34,10,30.07,29.89,6,0,6,0.00
2013-8-31,99.9,84.6,72.9,75.2,44.8,23.0,89,33,10,30.01,29.83,10,1,10,0.00
2013-9-1,101.3,84.9,72.1,71.6,44.4,28.4,84,31,10,29.98,29.83,11,2,11,0.00
2013-9-2,99.9,85.5,74.7,71.6,45.2,28.4,86,30,10,30.01,29.83,10,2,10,0.00
2013-9-3,103.3,82.9,75.0,71.6,51.5,28.4,78,42,9,29.98,29.83,3,1,3,0.00
2013-9-4,103.3,83.3,73.8,73.4,49.6,28.4,88,42,9,30.07,29.92,10,2,10,0.00
2013-9-5,99.9,83.7,74.3,73.4,47.7,28.4,88,36,10,30.09,29.98,11,1,11,0.00
2013-9-6,98.4,84.4,74.1,71.6,46.4,28.4,85,34,11,30.09,29.95,13,2,13,0.00
2013-9-7,99.1,80.5,73.0,71.6,46.0,26.6,87,37,10,30.09,29.92,10,1,10,0.00
2013-9-8,97.5,82.6,69.6,73.4,46.0,28.4,94,37,11,30.03,29.89,12,2,12,0.00
2013-9-9,95.5,82.1,71.2,71.6,44.7,26.6,93,35,11,30.03,29.95,15,3,15,0.00
2013-9-10,97.0,82.2,71.4,73.4,48.3,28.4,94,41,11,30.09,29.95,25,4,25,0.00
2013-9-11,97.5,82.1,73.2,73.4,53.4,28.4,93,49,11,30.12,29.95,15,2,15,0.00
2013-9-12,85.3,75.1,73.9,71.6,69.5,39.7,90,83,20,30.03,29.94,0,0,0,0.00
2013-9-20,0.0,0.0,0.0,71.6,71.6,71.6,0,0,100,0.00,40.00,0,0,0,0.00
2013-9-21,77.5,75.4,0.0,77.0,66.6,46.4,98,76,34,29.83,0.00,0,0,0,0.00
2013-9-22,87.1,75.4,66.2,53.6,29.0,19.4,50,20,11,29.86,29.74,15,4,15,0.00
2013-9-23,92.8,78.9,65.1,51.8,34.1,19.4,37,21,12,29.83,29.71,11,3,11,0.00
2013-9-24,97.5,84.0,72.9,80.6,50.0,30.2,91,40,11,29.86,29.74,7,2,7,0.00
2013-9-25,100.4,80.6,66.9,73.4,46.8,21.2,94,44,10,29.89,29.74,0,0,0,0.00
2013-9-26,99.9,79.6,65.1,64.4,42.2,23.0,88,35,10,29.95,29.83,0,0,0,0.00
2013-9-27,93.9,79.6,68.0,69.8,44.8,23.0,90,39,9,30.01,29.89,0,0,0,0.00
2013-9-28,93.7,82.5,72.0,62.6,39.8,28.4,68,25,11,30.07,29.92,0,0,0,0.00
2013-9-29,86.4,77.6,73.6,77.0,55.2,32.0,96,54,16,30.03,29.89,0,0,0,0.00
2013-9-30,82.6,77.2,74.7,80.6,72.7,66.2,98,86,68,29.95,29.83,0,0,0,0.00
2013-10-1,88.5,78.8,74.7,77.0,63.4,41.0,98,68,19,29.98,29.89,0,0,0,0.00
2013-10-2,90.1,79.5,73.8,75.2,57.4,30.2,95,57,13,30.03,29.89,0,0,0,0.00
2013-10-3,90.5,80.7,73.8,77.0,59.1,30.2,94,58,13,30.01,29.86,0,0,0,0.00
2013-11-14,49.5,37.9,0.0,66.2,14.5,5.0,40,33,30,30.45,0.00,0,0,0,0.00
2013-11-15,85.3,63.4,49.6,55.4,35.1,21.2,83,41,11,30.15,29.92,0,0,0,0.00
2013-11-16,80.6,70.2,60.3,68.0,57.5,44.6,96,68,30,30.01,29.83,0,0,0,0.00
2013-11-17,86.7,77.6,74.1,75.2,64.7,48.2,94,69,28,29.95,29.83,0,0,0,0.00
2013-11-18,79.5,71.4,59.2,75.2,38.4,14.0,97,42,12,30.09,29.92,0,0,0,0.00
2013-11-19,73.4,57.9,45.5,23.0,15.3,10.4,35,19,14,30.21,30.07,0,0,0,0.00
2013-11-20,78.8,59.1,40.5,37.4,18.9,5.0,38,22,13,30.12,29.98,0,0,0,0.00
2013-11-21,78.4,69.3,60.6,71.6,57.4,37.4,93,68,31,30.15,30.03,0,0,0,0.00
2013-11-22,76.8,70.2,59.9,73.4,63.5,48.2,98,80,42,30.21,30.09,0,0,0,0.00
2013-11-23,60.6,53.0,44.2,60.8,39.4,12.2,98,63,27,30.45,30.15,0,0,0,0.00
2013-11-24,55.8,45.7,38.7,12.2,7.3,3.2,25,20,17,30.48,30.30,0,0,0,0.00
2013-11-25,44.1,41.2,38.8,44.6,27.8,3.2,98,67,21,30.33,29.98,0,0,0,0.00
2013-11-26,43.7,42.6,40.6,44.6,41.2,35.6,98,92,73,30.27,29.95,0,0,0,0.00
2013-11-27,56.5,42.1,30.9,41.0,18.5,-0.4,98,48,16,30.48,30.24,6,0,6,0.00
2013-11-28,60.6,38.8,29.7,30.2,11.4,-0.4,78,36,17,30.57,30.42,9,0,9,0.00
2013-11-29,71.1,42.9,26.1,24.8,11.3,1.4,53,31,14,30.60,30.42,8,1,8,0.00
2013-11-30,75.2,49.0,30.7,41.0,16.7,10.4,74,31,13,30.45,30.24,7,0,7,0.00
2013-12-1,74.1,56.9,38.5,48.2,28.8,15.8,89,40,13,30.27,29.95,2,0,2,0.00
2013-12-2,80.6,68.4,61.7,66.2,47.3,21.2,97,55,12,29.95,29.68,0,0,0,0.00
2013-12-3,71.2,67.9,0.0,69.8,67.9,64.4,98,95,94,29.77,29.68,0,0,0,0.00
2013-12-4,79.3,73.0,70.0,75.2,67.2,50.0,98,84,37,29.86,29.71,0,0,0,0.00
2013-12-5,79.5,70.2,54.3,75.2,61.3,37.4,98,76,37,29.98,29.83,0,0,0,0.00
2013-12-6,54.3,46.2,39.4,55.4,38.4,21.2,98,75,45,30.39,29.95,0,0,0,0.00
2013-12-7,39.4,37.4,35.8,23.0,16.5,8.6,55,42,30,30.42,30.30,0,0,0,0.00
2013-12-8,47.5,41.3,35.6,46.4,34.3,17.6,95,77,45,30.33,30.07,0,0,0,0.00
2013-12-9,48.7,46.5,41.9,48.2,44.7,37.4,98,91,67,30.27,30.07,0,0,0,0.00
2013-12-10,56.5,42.4,34.5,42.8,19.2,5.0,97,45,17,30.48,30.27,0,0,0,0.00
2013-12-11,36.0,33.9,33.1,23.0,17.9,15.8,61,51,45,30.42,30.39,0,0,0,0.00
2014-1-1,57.2,55.6,0.0,53.6,52.6,23.0,88,84,83,30.09,0.00,0,0,0,0.00
2014-1-2,85.3,49.8,33.8,59.0,20.8,-2.2,98,40,17,30.48,29.94,4,0,4,0.00